Overview Statistics Trail Chart Weather Telemetry Raw packets
 

This is the latest recevied weather packets stored in our database for station/object S51UL-6. If no packets are shown the sender has not sent any weather packets the latest 10 day(s).

<< 67 68 69 70 71 72 73 >>
Time Temp. Humidity Pressure Rain* Wind** Luminosity Snow
1788028940 17.78° C 73% 1017.6 hPa 1.52 mm - - -
1788028641 18.33° C 73% 1017.5 hPa 1.52 mm - - -
1788028343 18.33° C 72% 1017.5 hPa 1.02 mm - - -
1788028040 18.33° C 72% 1017.6 hPa 1.02 mm - - -
1788027742 18.33° C 71% 1017.5 hPa 0.51 mm - - -
1788027441 18.89° C 71% 1017.4 hPa 0 mm - - -
1788027141 18.89° C 70% 1017.2 hPa 0 mm - - -
1788026842 18.89° C 69% 1017.1 hPa 0 mm - - -
1788026542 19.44° C 68% 1017.1 hPa 0 mm - - -
1788026242 19.44° C 68% 1017 hPa 0 mm - - -
1788025940 19.44° C 67% 1016.7 hPa 0 mm - - -
1788025718 20° C 66% 1016.8 hPa 0 mm - - -
1788025641 20° C 66% 1016.8 hPa 0 mm - - -
1788025340 20° C 65% 1017 hPa 0 mm - - -
1788025040 20.56° C 65% 1016.8 hPa 0 mm - - -
1788024741 20.56° C 64% 1016.8 hPa 0 mm - - -
1788024441 21.11° C 63% 1016.8 hPa 0 mm - - -
1788024141 21.11° C 62% 1016.7 hPa 0 mm - - -
1788023241 21.67° C 61% 1016.8 hPa 1.02 mm - - -
1788022642 22.78° C 59% 1017 hPa 2.03 mm - - -
1788022342 22.78° C 59% 1016.9 hPa 2.03 mm - - -
1788022043 23.33° C 58% 1016.9 hPa 2.03 mm - - -
1788021741 23.33° C 57% 1017 hPa 2.03 mm - - -
1788021443 23.33° C 56% 1017 hPa 2.03 mm - - -
1788020544 23.89° C 53% 1017 hPa 2.54 mm - - -

* Rain latest hour (hover to see other rain measurements)
** Current wind speed in m/s (hover to see current wind gust speed)